SLG Airport (Smith Field) Information

FAA: SLG - ICAO: KSLG

SLG Airport Location

State Arkansas
County Benton
City Siloam Springs
SLG Airport is 3 miles northeast of Siloam Springs, AR.
Latitude 36-11-30.7000N
Longitude 094-29-24.0000W
Elevation 1,191ft

KSLG Airport METARs

METAR KSLG 301756Z AUTO 09005KT 10SM CLR 20/06 A3010 RMK AO2 SLP188 T02000061 10200 20050 58003
Altimeter 30.10"
Temperature 20.0°C (68.0°F)
Wind 90° at 5KT
Clouds Skies are clear.
Visibility 10.0mi
Time observed: 2021-11-30T17:56:00Z

SLG Airport Details

Status Operational
Activation March 1963
Ownership Public
Usage Public
Chart KANSAS CITY
ATC on-site No
Beacon schedule sunset-sunrise
Beacon color clear green

SLG Airport Contacts

Owner CITY OF SILOAM SPRINGS
Owner address PO BOX 80, SILOAM SPRINGS, AR 72761
Owner phone 479-524-5136
Manager TOMMY ANDERSON
Manager address PO BOX 230, SHERRILL, AR 72152
Manager phone 501-766-8638

SLG Airport (Smith Field) Radio Frequencies

SLG (Airport) Radio Frequencies

UNICOM 122.8
Common traffic advisory frequency (CTAF) 122.8